sensor_id;sensor_type;location;lat;lon;timestamp;temperature;humidity
19544;DHT22;9917;51.256;7.152;2023-03-14T00:02:00;11.60;99.90
19544;DHT22;9917;51.256;7.152;2023-03-14T00:04:26;11.60;99.90
19544;DHT22;9917;51.256;7.152;2023-03-14T00:06:52;11.50;99.90
19544;DHT22;9917;51.256;7.152;2023-03-14T00:09:17;11.50;99.90
19544;DHT22;9917;51.256;7.152;2023-03-14T00:11:44;11.40;99.90
19544;DHT22;9917;51.256;7.152;2023-03-14T00:14:10;11.50;99.90
19544;DHT22;9917;51.256;7.152;2023-03-14T00:16:36;11.40;99.90
19544;DHT22;9917;51.256;7.152;2023-03-14T00:19:02;11.40;99.90
19544;DHT22;9917;51.256;7.152;2023-03-14T00:21:28;11.40;99.90
19544;DHT22;9917;51.256;7.152;2023-03-14T00:23:53;11.30;99.90
19544;DHT22;9917;51.256;7.152;2023-03-14T00:26:21;11.30;99.90
19544;DHT22;9917;51.256;7.152;2023-03-14T00:28:51;11.50;99.90
19544;DHT22;9917;51.256;7.152;2023-03-14T00:31:17;11.50;99.90
19544;DHT22;9917;51.256;7.152;2023-03-14T00:33:43;11.50;99.90
19544;DHT22;9917;51.256;7.152;2023-03-14T00:36:12;11.60;99.90
19544;DHT22;9917;51.256;7.152;2023-03-14T00:38:39;11.70;99.90
19544;DHT22;9917;51.256;7.152;2023-03-14T00:41:05;11.70;99.90
19544;DHT22;9917;51.256;7.152;2023-03-14T00:43:31;11.70;99.90
19544;DHT22;9917;51.256;7.152;2023-03-14T00:45:58;11.80;99.90
19544;DHT22;9917;51.256;7.152;2023-03-14T00:48:24;11.70;99.90
19544;DHT22;9917;51.256;7.152;2023-03-14T00:50:50;11.80;99.90
19544;DHT22;9917;51.256;7.152;2023-03-14T00:53:16;11.80;99.90
19544;DHT22;9917;51.256;7.152;2023-03-14T00:55:43;11.90;99.90
19544;DHT22;9917;51.256;7.152;2023-03-14T00:58:09;11.90;99.90
19544;DHT22;9917;51.256;7.152;2023-03-14T01:00:36;11.90;99.90
19544;DHT22;9917;51.256;7.152;2023-03-14T01:03:04;11.80;99.90
19544;DHT22;9917;51.256;7.152;2023-03-14T01:05:30;11.50;99.90
19544;DHT22;9917;51.256;7.152;2023-03-14T01:07:56;11.40;99.90
19544;DHT22;9917;51.256;7.152;2023-03-14T01:10:22;11.30;99.90
19544;DHT22;9917;51.256;7.152;2023-03-14T01:12:48;11.30;99.90
19544;DHT22;9917;51.256;7.152;2023-03-14T01:15:14;11.30;99.90
19544;DHT22;9917;51.256;7.152;2023-03-14T01:17:40;11.10;99.90
19544;DHT22;9917;51.256;7.152;2023-03-14T01:20:10;10.70;99.90
19544;DHT22;9917;51.256;7.152;2023-03-14T01:22:36;10.20;99.90
19544;DHT22;9917;51.256;7.152;2023-03-14T01:25:02;9.70;99.90
19544;DHT22;9917;51.256;7.152;2023-03-14T01:27:28;9.50;99.90
19544;DHT22;9917;51.256;7.152;2023-03-14T01:29:53;9.40;99.90
19544;DHT22;9917;51.256;7.152;2023-03-14T01:32:19;9.30;99.90
19544;DHT22;9917;51.256;7.152;2023-03-14T01:34:45;9.20;99.90
19544;DHT22;9917;51.256;7.152;2023-03-14T01:37:12;9.10;99.90
19544;DHT22;9917;51.256;7.152;2023-03-14T01:39:37;9.20;99.90
19544;DHT22;9917;51.256;7.152;2023-03-14T01:42:03;9.20;99.90
19544;DHT22;9917;51.256;7.152;2023-03-14T01:44:48;9.20;99.90
19544;DHT22;9917;51.256;7.152;2023-03-14T01:47:13;9.20;99.90
19544;DHT22;9917;51.256;7.152;2023-03-14T01:49:39;9.20;99.90
19544;DHT22;9917;51.256;7.152;2023-03-14T01:52:07;9.20;99.90
19544;DHT22;9917;51.256;7.152;2023-03-14T01:54:39;9.20;99.90
19544;DHT22;9917;51.256;7.152;2023-03-14T01:57:09;9.10;99.90
19544;DHT22;9917;51.256;7.152;2023-03-14T01:59:37;9.20;99.90
19544;DHT22;9917;51.256;7.152;2023-03-14T02:02:04;9.10;99.90
19544;DHT22;9917;51.256;7.152;2023-03-14T02:04:33;9.50;99.90
19544;DHT22;9917;51.256;7.152;2023-03-14T02:07:03;9.30;99.90
19544;DHT22;9917;51.256;7.152;2023-03-14T02:09:32;9.10;99.90
19544;DHT22;9917;51.256;7.152;2023-03-14T02:11:59;9.20;99.90
19544;DHT22;9917;51.256;7.152;2023-03-14T02:14:30;9.20;99.90
19544;DHT22;9917;51.256;7.152;2023-03-14T02:16:57;9.30;99.90
19544;DHT22;9917;51.256;7.152;2023-03-14T02:19:31;9.30;99.90
19544;DHT22;9917;51.256;7.152;2023-03-14T02:22:02;9.30;99.90
19544;DHT22;9917;51.256;7.152;2023-03-14T02:24:34;9.30;99.90
19544;DHT22;9917;51.256;7.152;2023-03-14T02:27:12;9.20;99.90
19544;DHT22;9917;51.256;7.152;2023-03-14T02:29:43;9.30;99.90
19544;DHT22;9917;51.256;7.152;2023-03-14T02:32:11;9.30;99.90
19544;DHT22;9917;51.256;7.152;2023-03-14T02:34:37;9.20;99.90
19544;DHT22;9917;51.256;7.152;2023-03-14T02:37:03;9.30;99.90
19544;DHT22;9917;51.256;7.152;2023-03-14T02:39:35;9.30;99.90
19544;DHT22;9917;51.256;7.152;2023-03-14T02:42:01;9.30;99.90
19544;DHT22;9917;51.256;7.152;2023-03-14T02:44:28;9.30;99.90
19544;DHT22;9917;51.256;7.152;2023-03-14T02:46:53;9.20;99.90
19544;DHT22;9917;51.256;7.152;2023-03-14T02:49:19;9.30;99.90
19544;DHT22;9917;51.256;7.152;2023-03-14T02:51:45;9.30;99.90
19544;DHT22;9917;51.256;7.152;2023-03-14T02:54:11;9.30;99.90
19544;DHT22;9917;51.256;7.152;2023-03-14T02:56:38;9.40;99.90
19544;DHT22;9917;51.256;7.152;2023-03-14T02:59:04;9.40;99.90
19544;DHT22;9917;51.256;7.152;2023-03-14T03:01:31;9.50;99.90
19544;DHT22;9917;51.256;7.152;2023-03-14T03:03:57;9.50;99.90
19544;DHT22;9917;51.256;7.152;2023-03-14T03:06:22;9.50;99.90
19544;DHT22;9917;51.256;7.152;2023-03-14T03:08:48;9.50;99.90
19544;DHT22;9917;51.256;7.152;2023-03-14T03:11:14;9.50;99.90
19544;DHT22;9917;51.256;7.152;2023-03-14T03:13:39;9.60;99.90
19544;DHT22;9917;51.256;7.152;2023-03-14T03:16:06;9.60;99.90
19544;DHT22;9917;51.256;7.152;2023-03-14T03:18:33;9.60;99.90
19544;DHT22;9917;51.256;7.152;2023-03-14T03:21:00;9.70;99.90
19544;DHT22;9917;51.256;7.152;2023-03-14T03:23:25;9.70;99.90
19544;DHT22;9917;51.256;7.152;2023-03-14T03:25:51;10.00;99.90
19544;DHT22;9917;51.256;7.152;2023-03-14T03:28:17;9.90;99.90
19544;DHT22;9917;51.256;7.152;2023-03-14T03:30:43;9.90;99.90
19544;DHT22;9917;51.256;7.152;2023-03-14T03:33:09;9.90;99.90
19544;DHT22;9917;51.256;7.152;2023-03-14T03:35:42;9.90;99.90
19544;DHT22;9917;51.256;7.152;2023-03-14T03:38:07;9.90;99.90
19544;DHT22;9917;51.256;7.152;2023-03-14T03:40:33;9.90;99.90
19544;DHT22;9917;51.256;7.152;2023-03-14T03:42:59;9.90;99.90
19544;DHT22;9917;51.256;7.152;2023-03-14T03:45:25;9.80;99.90
19544;DHT22;9917;51.256;7.152;2023-03-14T03:47:50;9.70;99.90
19544;DHT22;9917;51.256;7.152;2023-03-14T03:50:16;9.50;99.90
19544;DHT22;9917;51.256;7.152;2023-03-14T03:52:43;9.40;99.90
19544;DHT22;9917;51.256;7.152;2023-03-14T03:55:09;9.30;99.90
19544;DHT22;9917;51.256;7.152;2023-03-14T03:57:35;9.30;99.90
19544;DHT22;9917;51.256;7.152;2023-03-14T04:00:01;9.30;99.90
19544;DHT22;9917;51.256;7.152;2023-03-14T04:02:26;9.30;99.90
19544;DHT22;9917;51.256;7.152;2023-03-14T04:04:52;9.30;99.90
19544;DHT22;9917;51.256;7.152;2023-03-14T04:07:18;9.30;99.90
19544;DHT22;9917;51.256;7.152;2023-03-14T04:09:45;9.30;99.90
19544;DHT22;9917;51.256;7.152;2023-03-14T04:12:11;9.30;99.90
19544;DHT22;9917;51.256;7.152;2023-03-14T04:14:36;9.20;99.90
19544;DHT22;9917;51.256;7.152;2023-03-14T04:17:02;9.20;99.90
19544;DHT22;9917;51.256;7.152;2023-03-14T04:19:28;9.20;99.90
19544;DHT22;9917;51.256;7.152;2023-03-14T04:21:53;9.30;99.90
19544;DHT22;9917;51.256;7.152;2023-03-14T04:24:19;9.20;99.90
19544;DHT22;9917;51.256;7.152;2023-03-14T04:26:46;9.20;99.90
19544;DHT22;9917;51.256;7.152;2023-03-14T04:29:12;9.20;99.90
19544;DHT22;9917;51.256;7.152;2023-03-14T04:31:38;9.20;99.90
19544;DHT22;9917;51.256;7.152;2023-03-14T04:34:03;9.20;99.90
19544;DHT22;9917;51.256;7.152;2023-03-14T04:36:29;9.10;99.90
19544;DHT22;9917;51.256;7.152;2023-03-14T04:38:55;9.20;99.90
19544;DHT22;9917;51.256;7.152;2023-03-14T04:41:20;9.10;99.90
19544;DHT22;9917;51.256;7.152;2023-03-14T04:43:48;9.10;99.90
19544;DHT22;9917;51.256;7.152;2023-03-14T04:46:13;9.10;99.90
19544;DHT22;9917;51.256;7.152;2023-03-14T04:48:39;9.10;99.90
19544;DHT22;9917;51.256;7.152;2023-03-14T04:51:05;9.10;99.90
19544;DHT22;9917;51.256;7.152;2023-03-14T04:53:31;9.00;99.90
19544;DHT22;9917;51.256;7.152;2023-03-14T04:55:57;9.00;99.90
19544;DHT22;9917;51.256;7.152;2023-03-14T04:58:23;9.00;99.90
19544;DHT22;9917;51.256;7.152;2023-03-14T05:00:50;9.00;99.90
19544;DHT22;9917;51.256;7.152;2023-03-14T05:03:17;9.00;99.90
19544;DHT22;9917;51.256;7.152;2023-03-14T05:05:44;9.00;99.90
19544;DHT22;9917;51.256;7.152;2023-03-14T05:08:09;9.10;99.90
19544;DHT22;9917;51.256;7.152;2023-03-14T05:10:35;9.10;99.90
19544;DHT22;9917;51.256;7.152;2023-03-14T05:13:01;9.10;99.90
19544;DHT22;9917;51.256;7.152;2023-03-14T05:15:27;9.10;99.90
19544;DHT22;9917;51.256;7.152;2023-03-14T05:17:54;9.10;99.90
19544;DHT22;9917;51.256;7.152;2023-03-14T05:20:19;9.10;99.90
19544;DHT22;9917;51.256;7.152;2023-03-14T05:22:45;9.10;99.90
19544;DHT22;9917;51.256;7.152;2023-03-14T05:25:11;9.10;99.90
19544;DHT22;9917;51.256;7.152;2023-03-14T05:27:37;9.10;99.90
19544;DHT22;9917;51.256;7.152;2023-03-14T05:30:03;9.10;99.90
19544;DHT22;9917;51.256;7.152;2023-03-14T05:32:29;9.20;99.90
19544;DHT22;9917;51.256;7.152;2023-03-14T05:34:56;9.20;99.90
19544;DHT22;9917;51.256;7.152;2023-03-14T05:37:22;9.20;99.90
19544;DHT22;9917;51.256;7.152;2023-03-14T05:39:47;9.10;99.90
19544;DHT22;9917;51.256;7.152;2023-03-14T05:42:13;9.10;99.90
19544;DHT22;9917;51.256;7.152;2023-03-14T05:44:39;9.20;99.90
19544;DHT22;9917;51.256;7.152;2023-03-14T05:47:04;9.20;99.90
19544;DHT22;9917;51.256;7.152;2023-03-14T05:49:30;9.20;99.90
19544;DHT22;9917;51.256;7.152;2023-03-14T05:51:57;9.20;99.90
19544;DHT22;9917;51.256;7.152;2023-03-14T05:54:23;9.20;99.90
19544;DHT22;9917;51.256;7.152;2023-03-14T05:56:49;9.20;99.90
19544;DHT22;9917;51.256;7.152;2023-03-14T05:59:14;9.20;99.90
19544;DHT22;9917;51.256;7.152;2023-03-14T06:01:40;9.20;99.90
19544;DHT22;9917;51.256;7.152;2023-03-14T06:04:06;9.30;99.90
19544;DHT22;9917;51.256;7.152;2023-03-14T06:06:32;9.20;99.90
19544;DHT22;9917;51.256;7.152;2023-03-14T06:08:59;9.20;99.90
19544;DHT22;9917;51.256;7.152;2023-03-14T06:11:25;9.30;99.90
19544;DHT22;9917;51.256;7.152;2023-03-14T06:13:51;9.20;99.90
19544;DHT22;9917;51.256;7.152;2023-03-14T06:16:17;9.20;99.90
19544;DHT22;9917;51.256;7.152;2023-03-14T06:18:42;9.30;99.90
19544;DHT22;9917;51.256;7.152;2023-03-14T06:21:08;9.30;99.90
19544;DHT22;9917;51.256;7.152;2023-03-14T06:23:34;9.30;99.90
19544;DHT22;9917;51.256;7.152;2023-03-14T06:26:03;9.30;99.90
19544;DHT22;9917;51.256;7.152;2023-03-14T06:28:28;9.30;99.90
19544;DHT22;9917;51.256;7.152;2023-03-14T06:30:54;9.40;99.90
19544;DHT22;9917;51.256;7.152;2023-03-14T06:33:20;9.30;99.90
19544;DHT22;9917;51.256;7.152;2023-03-14T06:35:46;9.40;99.90
19544;DHT22;9917;51.256;7.152;2023-03-14T06:38:11;9.30;99.90
19544;DHT22;9917;51.256;7.152;2023-03-14T06:40:37;9.40;99.90
19544;DHT22;9917;51.256;7.152;2023-03-14T06:43:04;9.40;99.90
19544;DHT22;9917;51.256;7.152;2023-03-14T06:45:30;9.40;99.90
19544;DHT22;9917;51.256;7.152;2023-03-14T06:47:56;9.40;99.90
19544;DHT22;9917;51.256;7.152;2023-03-14T06:50:21;9.40;99.90
19544;DHT22;9917;51.256;7.152;2023-03-14T06:52:47;9.40;99.90
19544;DHT22;9917;51.256;7.152;2023-03-14T06:55:13;9.50;99.90
19544;DHT22;9917;51.256;7.152;2023-03-14T06:57:39;9.40;99.90
19544;DHT22;9917;51.256;7.152;2023-03-14T07:00:09;9.40;99.90
19544;DHT22;9917;51.256;7.152;2023-03-14T07:02:35;9.50;99.90
19544;DHT22;9917;51.256;7.152;2023-03-14T07:05:01;9.50;99.90
19544;DHT22;9917;51.256;7.152;2023-03-14T07:07:27;9.60;99.90
19544;DHT22;9917;51.256;7.152;2023-03-14T07:09:53;9.70;99.90
19544;DHT22;9917;51.256;7.152;2023-03-14T07:12:19;9.70;99.90
19544;DHT22;9917;51.256;7.152;2023-03-14T07:14:44;9.80;99.90
19544;DHT22;9917;51.256;7.152;2023-03-14T07:17:11;9.80;99.90
19544;DHT22;9917;51.256;7.152;2023-03-14T07:19:37;9.80;99.90
19544;DHT22;9917;51.256;7.152;2023-03-14T07:22:03;9.90;99.90
19544;DHT22;9917;51.256;7.152;2023-03-14T07:24:28;9.90;99.90
19544;DHT22;9917;51.256;7.152;2023-03-14T07:26:54;9.90;99.90
19544;DHT22;9917;51.256;7.152;2023-03-14T07:29:21;10.00;99.90
19544;DHT22;9917;51.256;7.152;2023-03-14T07:31:47;10.10;99.90
19544;DHT22;9917;51.256;7.152;2023-03-14T07:34:14;10.00;99.90
19544;DHT22;9917;51.256;7.152;2023-03-14T07:36:40;10.00;99.90
19544;DHT22;9917;51.256;7.152;2023-03-14T07:39:05;10.10;99.90
19544;DHT22;9917;51.256;7.152;2023-03-14T07:41:31;10.10;99.90
19544;DHT22;9917;51.256;7.152;2023-03-14T07:43:57;10.00;99.90
19544;DHT22;9917;51.256;7.152;2023-03-14T07:46:23;10.00;99.90
19544;DHT22;9917;51.256;7.152;2023-03-14T07:48:49;9.90;99.90
19544;DHT22;9917;51.256;7.152;2023-03-14T07:51:16;9.90;99.90
19544;DHT22;9917;51.256;7.152;2023-03-14T07:53:42;9.90;99.90
19544;DHT22;9917;51.256;7.152;2023-03-14T07:56:08;9.90;99.90
19544;DHT22;9917;51.256;7.152;2023-03-14T07:58:34;10.00;99.90
19544;DHT22;9917;51.256;7.152;2023-03-14T08:01:00;10.10;99.90
19544;DHT22;9917;51.256;7.152;2023-03-14T08:03:25;10.30;99.90
19544;DHT22;9917;51.256;7.152;2023-03-14T08:05:51;10.30;99.90
19544;DHT22;9917;51.256;7.152;2023-03-14T08:08:18;10.40;99.90
19544;DHT22;9917;51.256;7.152;2023-03-14T08:10:44;10.50;99.90
19544;DHT22;9917;51.256;7.152;2023-03-14T08:13:10;10.40;99.90
19544;DHT22;9917;51.256;7.152;2023-03-14T08:15:36;10.30;99.90
19544;DHT22;9917;51.256;7.152;2023-03-14T08:18:02;10.30;99.90
19544;DHT22;9917;51.256;7.152;2023-03-14T08:20:29;10.30;99.90
19544;DHT22;9917;51.256;7.152;2023-03-14T08:22:56;10.30;99.90
19544;DHT22;9917;51.256;7.152;2023-03-14T08:25:23;10.30;99.90
19544;DHT22;9917;51.256;7.152;2023-03-14T08:30:16;10.40;99.90
19544;DHT22;9917;51.256;7.152;2023-03-14T08:32:43;10.50;99.90
19544;DHT22;9917;51.256;7.152;2023-03-14T08:35:10;10.50;99.90
19544;DHT22;9917;51.256;7.152;2023-03-14T08:37:36;10.50;99.90
19544;DHT22;9917;51.256;7.152;2023-03-14T08:40:03;10.50;99.90
19544;DHT22;9917;51.256;7.152;2023-03-14T08:42:30;10.50;99.90
19544;DHT22;9917;51.256;7.152;2023-03-14T08:44:56;10.50;99.90
19544;DHT22;9917;51.256;7.152;2023-03-14T08:47:22;10.60;99.90
19544;DHT22;9917;51.256;7.152;2023-03-14T08:49:47;10.70;99.90
19544;DHT22;9917;51.256;7.152;2023-03-14T08:52:13;10.80;99.90
19544;DHT22;9917;51.256;7.152;2023-03-14T08:54:39;10.80;99.90
19544;DHT22;9917;51.256;7.152;2023-03-14T08:57:04;10.90;99.90
19544;DHT22;9917;51.256;7.152;2023-03-14T08:59:31;10.90;99.90
19544;DHT22;9917;51.256;7.152;2023-03-14T09:01:57;11.00;99.90
19544;DHT22;9917;51.256;7.152;2023-03-14T09:04:23;11.00;99.90
19544;DHT22;9917;51.256;7.152;2023-03-14T09:06:49;11.10;99.90
19544;DHT22;9917;51.256;7.152;2023-03-14T09:09:14;11.00;99.90
19544;DHT22;9917;51.256;7.152;2023-03-14T09:11:40;11.10;99.90
19544;DHT22;9917;51.256;7.152;2023-03-14T09:14:06;11.10;99.90
19544;DHT22;9917;51.256;7.152;2023-03-14T09:16:34;11.30;99.90
19544;DHT22;9917;51.256;7.152;2023-03-14T09:19:00;11.30;99.90
19544;DHT22;9917;51.256;7.152;2023-03-14T09:21:26;11.30;99.90
19544;DHT22;9917;51.256;7.152;2023-03-14T09:23:52;11.20;99.90
19544;DHT22;9917;51.256;7.152;2023-03-14T09:26:17;11.10;99.90
19544;DHT22;9917;51.256;7.152;2023-03-14T09:28:43;10.90;99.90
19544;DHT22;9917;51.256;7.152;2023-03-14T09:31:11;10.80;99.90
19544;DHT22;9917;51.256;7.152;2023-03-14T09:33:38;10.70;99.90
19544;DHT22;9917;51.256;7.152;2023-03-14T09:36:05;10.70;99.90
19544;DHT22;9917;51.256;7.152;2023-03-14T09:38:31;10.60;99.90
19544;DHT22;9917;51.256;7.152;2023-03-14T09:40:59;10.70;99.90
19544;DHT22;9917;51.256;7.152;2023-03-14T09:43:27;10.80;99.90
19544;DHT22;9917;51.256;7.152;2023-03-14T09:45:53;10.90;99.90
19544;DHT22;9917;51.256;7.152;2023-03-14T09:48:21;10.70;99.90
19544;DHT22;9917;51.256;7.152;2023-03-14T09:50:51;10.30;99.90
19544;DHT22;9917;51.256;7.152;2023-03-14T09:53:20;10.10;99.90
19544;DHT22;9917;51.256;7.152;2023-03-14T09:55:49;9.80;99.90
19544;DHT22;9917;51.256;7.152;2023-03-14T09:58:18;9.70;99.90
19544;DHT22;9917;51.256;7.152;2023-03-14T10:00:44;9.50;99.90
19544;DHT22;9917;51.256;7.152;2023-03-14T10:03:26;9.40;99.90
19544;DHT22;9917;51.256;7.152;2023-03-14T10:05:56;9.30;99.90
19544;DHT22;9917;51.256;7.152;2023-03-14T10:08:22;9.40;99.90
19544;DHT22;9917;51.256;7.152;2023-03-14T10:10:47;9.50;99.90
19544;DHT22;9917;51.256;7.152;2023-03-14T10:13:16;9.70;99.90
19544;DHT22;9917;51.256;7.152;2023-03-14T10:15:47;9.80;99.90
19544;DHT22;9917;51.256;7.152;2023-03-14T10:18:14;9.80;99.90
19544;DHT22;9917;51.256;7.152;2023-03-14T10:20:42;9.90;99.90
19544;DHT22;9917;51.256;7.152;2023-03-14T10:23:23;9.90;99.90
19544;DHT22;9917;51.256;7.152;2023-03-14T10:26:00;9.80;99.90
19544;DHT22;9917;51.256;7.152;2023-03-14T10:28:28;9.80;99.90
19544;DHT22;9917;51.256;7.152;2023-03-14T10:30:55;9.60;99.90
19544;DHT22;9917;51.256;7.152;2023-03-14T10:33:22;9.50;99.90
19544;DHT22;9917;51.256;7.152;2023-03-14T10:35:53;9.50;99.90
19544;DHT22;9917;51.256;7.152;2023-03-14T10:38:28;9.30;99.90
19544;DHT22;9917;51.256;7.152;2023-03-14T10:40:55;9.10;99.90
19544;DHT22;9917;51.256;7.152;2023-03-14T10:43:23;9.10;99.90
19544;DHT22;9917;51.256;7.152;2023-03-14T10:45:55;9.00;99.90
19544;DHT22;9917;51.256;7.152;2023-03-14T10:48:24;9.00;99.90
19544;DHT22;9917;51.256;7.152;2023-03-14T10:50:55;9.00;99.90
19544;DHT22;9917;51.256;7.152;2023-03-14T10:53:21;9.00;99.90
19544;DHT22;9917;51.256;7.152;2023-03-14T10:55:48;9.10;99.90
19544;DHT22;9917;51.256;7.152;2023-03-14T10:58:22;9.10;99.90
19544;DHT22;9917;51.256;7.152;2023-03-14T11:00:58;9.20;99.90
19544;DHT22;9917;51.256;7.152;2023-03-14T11:03:27;9.20;99.90
19544;DHT22;9917;51.256;7.152;2023-03-14T11:05:57;9.30;99.90
19544;DHT22;9917;51.256;7.152;2023-03-14T11:08:26;9.30;99.90
19544;DHT22;9917;51.256;7.152;2023-03-14T11:11:02;9.30;99.90
19544;DHT22;9917;51.256;7.152;2023-03-14T11:13:39;9.20;99.90
19544;DHT22;9917;51.256;7.152;2023-03-14T11:16:11;9.20;99.90
19544;DHT22;9917;51.256;7.152;2023-03-14T11:19:01;9.20;99.90
19544;DHT22;9917;51.256;7.152;2023-03-14T11:21:32;9.40;99.90
19544;DHT22;9917;51.256;7.152;2023-03-14T11:27:17;9.70;99.90
19544;DHT22;9917;51.256;7.152;2023-03-14T11:29:51;9.80;99.90
19544;DHT22;9917;51.256;7.152;2023-03-14T11:32:25;10.00;99.90
19544;DHT22;9917;51.256;7.152;2023-03-14T11:34:54;10.10;99.90
19544;DHT22;9917;51.256;7.152;2023-03-14T11:37:25;10.20;99.90
19544;DHT22;9917;51.256;7.152;2023-03-14T11:39:57;10.40;99.90
19544;DHT22;9917;51.256;7.152;2023-03-14T11:42:26;10.60;99.90
19544;DHT22;9917;51.256;7.152;2023-03-14T11:44:53;10.90;99.90
19544;DHT22;9917;51.256;7.152;2023-03-14T11:47:23;11.10;99.90
19544;DHT22;9917;51.256;7.152;2023-03-14T11:49:56;11.10;99.90
19544;DHT22;9917;51.256;7.152;2023-03-14T11:52:27;11.10;99.90
19544;DHT22;9917;51.256;7.152;2023-03-14T11:54:57;11.20;99.90
19544;DHT22;9917;51.256;7.152;2023-03-14T11:57:26;11.30;99.90
19544;DHT22;9917;51.256;7.152;2023-03-14T11:59:56;11.30;99.90
19544;DHT22;9917;51.256;7.152;2023-03-14T12:02:31;11.30;99.90
19544;DHT22;9917;51.256;7.152;2023-03-14T12:05:22;11.10;99.90
19544;DHT22;9917;51.256;7.152;2023-03-14T12:08:13;11.00;99.90
19544;DHT22;9917;51.256;7.152;2023-03-14T12:10:47;11.00;99.90
19544;DHT22;9917;51.256;7.152;2023-03-14T12:13:16;11.00;99.90
19544;DHT22;9917;51.256;7.152;2023-03-14T12:15:47;10.90;99.90
19544;DHT22;9917;51.256;7.152;2023-03-14T12:18:20;10.80;99.90
19544;DHT22;9917;51.256;7.152;2023-03-14T12:20:51;10.70;99.90
19544;DHT22;9917;51.256;7.152;2023-03-14T12:23:18;10.60;99.90
19544;DHT22;9917;51.256;7.152;2023-03-14T12:25:44;10.60;99.90
19544;DHT22;9917;51.256;7.152;2023-03-14T12:28:21;10.70;99.90
19544;DHT22;9917;51.256;7.152;2023-03-14T12:30:47;10.80;99.90
19544;DHT22;9917;51.256;7.152;2023-03-14T12:33:21;10.80;99.90
19544;DHT22;9917;51.256;7.152;2023-03-14T12:35:52;10.70;99.90
19544;DHT22;9917;51.256;7.152;2023-03-14T12:38:24;10.80;99.90
19544;DHT22;9917;51.256;7.152;2023-03-14T12:40:58;10.80;99.90
19544;DHT22;9917;51.256;7.152;2023-03-14T12:43:28;10.90;99.90
19544;DHT22;9917;51.256;7.152;2023-03-14T12:46:24;10.90;99.90
19544;DHT22;9917;51.256;7.152;2023-03-14T12:48:54;11.40;99.90
19544;DHT22;9917;51.256;7.152;2023-03-14T12:51:28;12.10;99.90
19544;DHT22;9917;51.256;7.152;2023-03-14T12:54:26;12.80;99.90
19544;DHT22;9917;51.256;7.152;2023-03-14T12:57:13;13.50;99.90
19544;DHT22;9917;51.256;7.152;2023-03-14T12:59:48;14.60;99.90
19544;DHT22;9917;51.256;7.152;2023-03-14T13:02:24;15.40;99.90
19544;DHT22;9917;51.256;7.152;2023-03-14T13:04:53;15.60;99.90
19544;DHT22;9917;51.256;7.152;2023-03-14T13:10:19;15.00;99.90
19544;DHT22;9917;51.256;7.152;2023-03-14T13:12:50;14.40;99.90
19544;DHT22;9917;51.256;7.152;2023-03-14T13:15:33;13.90;99.90
19544;DHT22;9917;51.256;7.152;2023-03-14T13:18:02;13.30;99.90
19544;DHT22;9917;51.256;7.152;2023-03-14T13:20:31;12.90;99.90
19544;DHT22;9917;51.256;7.152;2023-03-14T13:22:57;12.50;99.90
19544;DHT22;9917;51.256;7.152;2023-03-14T13:25:23;12.20;99.90
19544;DHT22;9917;51.256;7.152;2023-03-14T13:27:52;11.90;99.90
19544;DHT22;9917;51.256;7.152;2023-03-14T13:30:22;11.50;99.90
19544;DHT22;9917;51.256;7.152;2023-03-14T13:32:50;11.20;99.90
19544;DHT22;9917;51.256;7.152;2023-03-14T13:35:19;11.10;99.90
19544;DHT22;9917;51.256;7.152;2023-03-14T13:37:46;11.10;99.90
19544;DHT22;9917;51.256;7.152;2023-03-14T13:40:21;11.40;99.90
19544;DHT22;9917;51.256;7.152;2023-03-14T13:42:49;12.00;99.90
19544;DHT22;9917;51.256;7.152;2023-03-14T13:45:15;13.00;99.90
19544;DHT22;9917;51.256;7.152;2023-03-14T13:47:41;13.50;99.90
19544;DHT22;9917;51.256;7.152;2023-03-14T13:50:16;13.50;99.90
19544;DHT22;9917;51.256;7.152;2023-03-14T13:52:42;13.30;99.90
19544;DHT22;9917;51.256;7.152;2023-03-14T13:55:15;13.00;99.90
19544;DHT22;9917;51.256;7.152;2023-03-14T13:57:46;12.50;99.90
19544;DHT22;9917;51.256;7.152;2023-03-14T14:00:19;12.00;99.90
19544;DHT22;9917;51.256;7.152;2023-03-14T14:02:46;11.50;99.90
19544;DHT22;9917;51.256;7.152;2023-03-14T14:05:12;11.10;99.90
19544;DHT22;9917;51.256;7.152;2023-03-14T14:07:40;11.30;99.90
19544;DHT22;9917;51.256;7.152;2023-03-14T14:10:10;12.20;99.90
19544;DHT22;9917;51.256;7.152;2023-03-14T14:12:39;13.00;99.90
19544;DHT22;9917;51.256;7.152;2023-03-14T14:15:09;13.50;99.90
19544;DHT22;9917;51.256;7.152;2023-03-14T14:17:39;15.20;99.90
19544;DHT22;9917;51.256;7.152;2023-03-14T14:20:13;17.30;99.90
19544;DHT22;9917;51.256;7.152;2023-03-14T14:22:44;19.10;95.50
19544;DHT22;9917;51.256;7.152;2023-03-14T14:25:13;20.50;91.30
19544;DHT22;9917;51.256;7.152;2023-03-14T14:27:41;21.60;85.70
19544;DHT22;9917;51.256;7.152;2023-03-14T14:30:27;22.40;76.20
19544;DHT22;9917;51.256;7.152;2023-03-14T14:33:06;22.40;66.90
19544;DHT22;9917;51.256;7.152;2023-03-14T14:35:35;22.00;67.70
19544;DHT22;9917;51.256;7.152;2023-03-14T14:38:08;21.90;64.40
19544;DHT22;9917;51.256;7.152;2023-03-14T14:40:43;22.40;61.90
19544;DHT22;9917;51.256;7.152;2023-03-14T14:43:16;22.50;61.60
19544;DHT22;9917;51.256;7.152;2023-03-14T14:45:43;22.50;59.80
19544;DHT22;9917;51.256;7.152;2023-03-14T14:48:10;21.90;60.60
19544;DHT22;9917;51.256;7.152;2023-03-14T14:50:38;21.00;61.40
19544;DHT22;9917;51.256;7.152;2023-03-14T14:53:21;20.70;61.40
19544;DHT22;9917;51.256;7.152;2023-03-14T14:55:50;20.00;60.20
19544;DHT22;9917;51.256;7.152;2023-03-14T14:58:19;19.50;61.50
19544;DHT22;9917;51.256;7.152;2023-03-14T15:00:53;18.20;62.00
19544;DHT22;9917;51.256;7.152;2023-03-14T15:03:20;18.10;62.80
19544;DHT22;9917;51.256;7.152;2023-03-14T15:05:46;17.60;63.80
19544;DHT22;9917;51.256;7.152;2023-03-14T15:08:12;17.10;66.40
19544;DHT22;9917;51.256;7.152;2023-03-14T15:10:40;16.90;66.90
19544;DHT22;9917;51.256;7.152;2023-03-14T15:13:05;16.60;68.10
19544;DHT22;9917;51.256;7.152;2023-03-14T15:15:31;16.50;65.50
19544;DHT22;9917;51.256;7.152;2023-03-14T15:17:57;16.20;66.10
19544;DHT22;9917;51.256;7.152;2023-03-14T15:20:23;16.00;63.50
19544;DHT22;9917;51.256;7.152;2023-03-14T15:22:49;15.90;65.10
19544;DHT22;9917;51.256;7.152;2023-03-14T15:25:15;15.80;62.90
19544;DHT22;9917;51.256;7.152;2023-03-14T15:27:42;15.70;59.90
19544;DHT22;9917;51.256;7.152;2023-03-14T15:30:11;15.50;62.40
19544;DHT22;9917;51.256;7.152;2023-03-14T15:32:36;15.40;60.30
19544;DHT22;9917;51.256;7.152;2023-03-14T15:35:02;15.30;60.20
19544;DHT22;9917;51.256;7.152;2023-03-14T15:37:28;15.30;58.40
19544;DHT22;9917;51.256;7.152;2023-03-14T15:39:54;15.40;58.70
19544;DHT22;9917;51.256;7.152;2023-03-14T15:42:20;15.50;58.30
19544;DHT22;9917;51.256;7.152;2023-03-14T15:44:47;15.60;57.40
19544;DHT22;9917;51.256;7.152;2023-03-14T15:47:13;15.40;58.60
19544;DHT22;9917;51.256;7.152;2023-03-14T15:49:41;14.90;58.80
19544;DHT22;9917;51.256;7.152;2023-03-14T15:52:07;14.50;59.70
19544;DHT22;9917;51.256;7.152;2023-03-14T15:54:33;14.20;61.50
19544;DHT22;9917;51.256;7.152;2023-03-14T15:56:59;13.80;62.30
19544;DHT22;9917;51.256;7.152;2023-03-14T15:59:24;13.60;63.80
19544;DHT22;9917;51.256;7.152;2023-03-14T16:01:52;13.40;65.90
19544;DHT22;9917;51.256;7.152;2023-03-14T16:04:18;13.20;64.70
19544;DHT22;9917;51.256;7.152;2023-03-14T16:06:44;13.00;64.20
19544;DHT22;9917;51.256;7.152;2023-03-14T16:09:10;12.80;64.10